sensor_id;sensor_type;location;lat;lon;timestamp;pressure;altitude;pressure_sealevel;temperature;humidity
28004;BME280;15330;51.234;6.754;2024-01-15T00:02:07;100019.56;;;1.23;89.00
28004;BME280;15330;51.234;6.754;2024-01-15T00:04:40;100009.91;;;0.93;90.71
28004;BME280;15330;51.234;6.754;2024-01-15T00:07:06;100004.84;;;1.05;90.06
28004;BME280;15330;51.234;6.754;2024-01-15T00:09:32;100006.41;;;0.93;90.66
28004;BME280;15330;51.234;6.754;2024-01-15T00:11:59;100001.84;;;1.11;90.86
28004;BME280;15330;51.234;6.754;2024-01-15T00:14:24;99997.78;;;1.05;90.53
28004;BME280;15330;51.234;6.754;2024-01-15T00:16:50;99999.03;;;1.14;90.85
28004;BME280;15330;51.234;6.754;2024-01-15T00:19:17;99992.25;;;1.10;90.75
28004;BME280;15330;51.234;6.754;2024-01-15T00:21:42;99985.94;;;1.12;90.65
28004;BME280;15330;51.234;6.754;2024-01-15T00:24:08;99992.06;;;1.13;90.60
28004;BME280;15330;51.234;6.754;2024-01-15T00:26:33;99987.88;;;0.95;92.02
28004;BME280;15330;51.234;6.754;2024-01-15T00:28:59;99989.59;;;1.10;90.50
28004;BME280;15330;51.234;6.754;2024-01-15T00:31:24;99982.44;;;0.98;90.76
28004;BME280;15330;51.234;6.754;2024-01-15T00:33:50;99984.03;;;1.00;91.48
28004;BME280;15330;51.234;6.754;2024-01-15T00:36:15;99976.25;;;1.13;90.29
28004;BME280;15330;51.234;6.754;2024-01-15T00:38:42;99973.50;;;1.00;91.05
28004;BME280;15330;51.234;6.754;2024-01-15T00:41:07;99963.03;;;0.99;91.01
28004;BME280;15330;51.234;6.754;2024-01-15T00:43:33;99956.84;;;1.14;90.93
28004;BME280;15330;51.234;6.754;2024-01-15T00:46:01;99958.34;;;1.18;91.11
28004;BME280;15330;51.234;6.754;2024-01-15T00:48:27;99958.53;;;1.15;89.99
28004;BME280;15330;51.234;6.754;2024-01-15T00:50:52;99956.38;;;1.22;90.65
28004;BME280;15330;51.234;6.754;2024-01-15T00:53:19;99954.00;;;1.31;90.39
28004;BME280;15330;51.234;6.754;2024-01-15T00:55:47;99962.31;;;1.11;91.04
28004;BME280;15330;51.234;6.754;2024-01-15T00:58:12;99954.88;;;1.03;91.38
28004;BME280;15330;51.234;6.754;2024-01-15T01:00:38;99959.09;;;1.06;91.48
28004;BME280;15330;51.234;6.754;2024-01-15T01:03:03;99945.94;;;1.20;91.06
28004;BME280;15330;51.234;6.754;2024-01-15T01:05:28;99952.78;;;1.37;90.27
28004;BME280;15330;51.234;6.754;2024-01-15T01:07:54;99959.56;;;0.98;91.41
28004;BME280;15330;51.234;6.754;2024-01-15T01:10:19;99951.69;;;1.12;91.59
28004;BME280;15330;51.234;6.754;2024-01-15T01:12:45;99951.19;;;1.20;91.05
28004;BME280;15330;51.234;6.754;2024-01-15T01:15:10;99945.53;;;1.12;91.04
28004;BME280;15330;51.234;6.754;2024-01-15T01:17:35;99940.47;;;1.23;90.60
28004;BME280;15330;51.234;6.754;2024-01-15T01:20:01;99936.25;;;1.35;90.09
28004;BME280;15330;51.234;6.754;2024-01-15T01:22:29;99941.78;;;1.30;90.55
28004;BME280;15330;51.234;6.754;2024-01-15T01:24:55;99938.75;;;1.08;91.42
28004;BME280;15330;51.234;6.754;2024-01-15T01:27:21;99941.97;;;1.27;90.76
28004;BME280;15330;51.234;6.754;2024-01-15T01:29:46;99933.88;;;1.16;90.79
28004;BME280;15330;51.234;6.754;2024-01-15T01:32:12;99936.69;;;1.27;90.28
28004;BME280;15330;51.234;6.754;2024-01-15T01:34:41;99939.81;;;1.20;90.44
28004;BME280;15330;51.234;6.754;2024-01-15T01:37:07;99931.53;;;1.26;90.79
28004;BME280;15330;51.234;6.754;2024-01-15T01:39:33;99939.34;;;1.42;90.26
28004;BME280;15330;51.234;6.754;2024-01-15T01:41:58;99938.31;;;1.30;90.08
28004;BME280;15330;51.234;6.754;2024-01-15T01:44:23;99931.31;;;1.14;91.25
28004;BME280;15330;51.234;6.754;2024-01-15T01:46:49;99934.25;;;1.38;90.63
28004;BME280;15330;51.234;6.754;2024-01-15T01:49:14;99935.75;;;1.28;90.73
28004;BME280;15330;51.234;6.754;2024-01-15T01:51:40;99935.94;;;1.39;90.33
28004;BME280;15330;51.234;6.754;2024-01-15T01:54:06;99943.84;;;1.39;90.24
28004;BME280;15330;51.234;6.754;2024-01-15T01:56:34;99944.22;;;1.33;90.53
28004;BME280;15330;51.234;6.754;2024-01-15T01:58:59;99937.06;;;1.35;90.54
28004;BME280;15330;51.234;6.754;2024-01-15T02:01:25;99938.69;;;1.09;91.68
28004;BME280;15330;51.234;6.754;2024-01-15T02:03:51;99945.16;;;1.18;92.02
28004;BME280;15330;51.234;6.754;2024-01-15T02:06:18;99939.25;;;1.29;91.56
28004;BME280;15330;51.234;6.754;2024-01-15T02:08:43;99956.47;;;1.34;90.77
28004;BME280;15330;51.234;6.754;2024-01-15T02:11:09;99955.91;;;1.29;90.75
28004;BME280;15330;51.234;6.754;2024-01-15T02:13:35;99951.56;;;1.28;91.36
28004;BME280;15330;51.234;6.754;2024-01-15T02:16:00;99957.31;;;1.21;91.84
28004;BME280;15330;51.234;6.754;2024-01-15T02:18:25;99965.41;;;1.17;91.74
28004;BME280;15330;51.234;6.754;2024-01-15T02:20:51;99958.25;;;1.34;91.26
28004;BME280;15330;51.234;6.754;2024-01-15T02:23:16;99959.56;;;1.27;90.97
28004;BME280;15330;51.234;6.754;2024-01-15T02:25:44;99967.38;;;1.28;91.27
28004;BME280;15330;51.234;6.754;2024-01-15T02:28:14;99956.28;;;1.23;91.95
28004;BME280;15330;51.234;6.754;2024-01-15T02:30:41;99943.84;;;1.39;91.77
28004;BME280;15330;51.234;6.754;2024-01-15T02:33:07;99949.03;;;1.27;91.74
28004;BME280;15330;51.234;6.754;2024-01-15T02:35:33;99945.16;;;1.47;90.77
28004;BME280;15330;51.234;6.754;2024-01-15T02:37:59;99945.25;;;1.45;90.32
28004;BME280;15330;51.234;6.754;2024-01-15T02:40:24;99946.97;;;1.17;92.13
28004;BME280;15330;51.234;6.754;2024-01-15T02:42:50;99954.47;;;1.38;90.97
28004;BME280;15330;51.234;6.754;2024-01-15T02:45:15;99947.91;;;1.45;91.03
28004;BME280;15330;51.234;6.754;2024-01-15T02:47:41;99944.88;;;1.37;90.67
28004;BME280;15330;51.234;6.754;2024-01-15T02:50:06;99947.97;;;1.44;90.60
28004;BME280;15330;51.234;6.754;2024-01-15T02:52:32;99949.78;;;1.57;90.37
28004;BME280;15330;51.234;6.754;2024-01-15T02:54:57;99941.28;;;1.52;90.32
28004;BME280;15330;51.234;6.754;2024-01-15T02:57:23;99940.16;;;1.56;90.48
28004;BME280;15330;51.234;6.754;2024-01-15T02:59:48;99941.88;;;1.43;90.89
28004;BME280;15330;51.234;6.754;2024-01-15T03:02:13;99947.72;;;1.34;90.60
28004;BME280;15330;51.234;6.754;2024-01-15T03:04:43;99939.44;;;1.26;90.87
28004;BME280;15330;51.234;6.754;2024-01-15T03:07:09;99950.81;;;1.40;90.89
28004;BME280;15330;51.234;6.754;2024-01-15T03:09:34;99954.69;;;1.35;91.09
28004;BME280;15330;51.234;6.754;2024-01-15T03:11:59;99947.41;;;1.53;90.62
28004;BME280;15330;51.234;6.754;2024-01-15T03:14:25;99948.53;;;1.34;90.30
28004;BME280;15330;51.234;6.754;2024-01-15T03:16:51;99945.00;;;1.35;90.69
28004;BME280;15330;51.234;6.754;2024-01-15T03:19:17;99945.47;;;1.42;90.35
28004;BME280;15330;51.234;6.754;2024-01-15T03:21:42;99945.75;;;1.23;91.33
28004;BME280;15330;51.234;6.754;2024-01-15T03:24:08;99948.47;;;1.36;91.26
28004;BME280;15330;51.234;6.754;2024-01-15T03:26:33;99947.13;;;1.43;90.58
28004;BME280;15330;51.234;6.754;2024-01-15T03:28:58;99952.22;;;1.46;90.32
28004;BME280;15330;51.234;6.754;2024-01-15T03:31:24;99950.44;;;1.47;90.25
28004;BME280;15330;51.234;6.754;2024-01-15T03:33:49;99949.28;;;1.65;89.67
28004;BME280;15330;51.234;6.754;2024-01-15T03:36:14;99943.81;;;1.54;89.83
28004;BME280;15330;51.234;6.754;2024-01-15T03:38:41;99945.34;;;1.58;89.54
28004;BME280;15330;51.234;6.754;2024-01-15T03:41:06;99947.59;;;1.64;89.19
28004;BME280;15330;51.234;6.754;2024-01-15T03:43:32;99942.06;;;1.54;90.16
28004;BME280;15330;51.234;6.754;2024-01-15T03:45:58;99943.19;;;1.36;90.47
28004;BME280;15330;51.234;6.754;2024-01-15T03:48:23;99936.88;;;1.38;90.55
28004;BME280;15330;51.234;6.754;2024-01-15T03:50:49;99938.53;;;1.54;89.88
28004;BME280;15330;51.234;6.754;2024-01-15T03:53:14;99935.81;;;1.41;90.59
28004;BME280;15330;51.234;6.754;2024-01-15T03:55:42;99933.88;;;1.45;90.00
28004;BME280;15330;51.234;6.754;2024-01-15T03:58:07;99932.16;;;1.44;90.04
28004;BME280;15330;51.234;6.754;2024-01-15T04:00:32;99927.25;;;1.37;90.49
28004;BME280;15330;51.234;6.754;2024-01-15T04:02:58;99933.06;;;1.57;89.82
28004;BME280;15330;51.234;6.754;2024-01-15T04:05:23;99930.47;;;1.43;90.25
28004;BME280;15330;51.234;6.754;2024-01-15T04:07:48;99918.97;;;1.44;89.82
28004;BME280;15330;51.234;6.754;2024-01-15T04:10:14;99916.97;;;1.47;89.53
28004;BME280;15330;51.234;6.754;2024-01-15T04:12:39;99924.44;;;1.40;90.02
28004;BME280;15330;51.234;6.754;2024-01-15T04:15:05;99919.34;;;1.37;89.81
28004;BME280;15330;51.234;6.754;2024-01-15T04:17:30;99914.06;;;1.52;90.06
28004;BME280;15330;51.234;6.754;2024-01-15T04:19:55;99908.63;;;1.40;90.34
28004;BME280;15330;51.234;6.754;2024-01-15T04:22:21;99915.31;;;1.46;89.52
28004;BME280;15330;51.234;6.754;2024-01-15T04:24:46;99910.47;;;1.53;89.20
28004;BME280;15330;51.234;6.754;2024-01-15T04:27:12;99901.16;;;1.47;89.63
28004;BME280;15330;51.234;6.754;2024-01-15T04:29:38;99902.69;;;1.51;89.39
28004;BME280;15330;51.234;6.754;2024-01-15T04:32:04;99895.81;;;1.49;89.48
28004;BME280;15330;51.234;6.754;2024-01-15T04:34:30;99894.84;;;1.50;89.09
28004;BME280;15330;51.234;6.754;2024-01-15T04:36:55;99893.56;;;1.43;89.36
28004;BME280;15330;51.234;6.754;2024-01-15T04:39:20;99893.91;;;1.51;89.21
28004;BME280;15330;51.234;6.754;2024-01-15T04:41:46;99897.53;;;1.35;89.56
28004;BME280;15330;51.234;6.754;2024-01-15T04:44:11;99891.81;;;1.56;89.02
28004;BME280;15330;51.234;6.754;2024-01-15T04:49:22;99884.75;;;1.56;88.86
28004;BME280;15330;51.234;6.754;2024-01-15T04:51:47;99890.81;;;1.44;89.53
28004;BME280;15330;51.234;6.754;2024-01-15T04:54:13;99874.91;;;1.46;89.51
28004;BME280;15330;51.234;6.754;2024-01-15T04:56:43;99888.28;;;1.43;89.27
28004;BME280;15330;51.234;6.754;2024-01-15T04:59:08;99879.91;;;1.36;89.77
28004;BME280;15330;51.234;6.754;2024-01-15T05:01:33;99884.88;;;1.40;89.99
28004;BME280;15330;51.234;6.754;2024-01-15T05:03:59;99889.13;;;1.43;89.34
28004;BME280;15330;51.234;6.754;2024-01-15T05:06:24;99891.47;;;1.48;89.60
28004;BME280;15330;51.234;6.754;2024-01-15T05:08:50;99880.06;;;1.47;89.55
28004;BME280;15330;51.234;6.754;2024-01-15T05:11:15;99875.56;;;1.76;89.15
28004;BME280;15330;51.234;6.754;2024-01-15T05:13:41;99875.88;;;1.72;88.49
28004;BME280;15330;51.234;6.754;2024-01-15T05:16:06;99875.31;;;1.67;88.90
28004;BME280;15330;51.234;6.754;2024-01-15T05:18:32;99875.59;;;1.89;88.18
28004;BME280;15330;51.234;6.754;2024-01-15T05:20:57;99866.56;;;1.93;88.26
28004;BME280;15330;51.234;6.754;2024-01-15T05:23:22;99868.59;;;2.02;87.31
28004;BME280;15330;51.234;6.754;2024-01-15T05:25:48;99870.19;;;1.78;88.22
28004;BME280;15330;51.234;6.754;2024-01-15T05:28:14;99876.44;;;1.77;88.36
28004;BME280;15330;51.234;6.754;2024-01-15T05:30:39;99882.28;;;1.68;88.57
28004;BME280;15330;51.234;6.754;2024-01-15T05:33:05;99874.47;;;1.66;88.88
28004;BME280;15330;51.234;6.754;2024-01-15T05:35:30;99875.16;;;1.82;88.66
28004;BME280;15330;51.234;6.754;2024-01-15T05:37:55;99868.09;;;1.56;88.84
28004;BME280;15330;51.234;6.754;2024-01-15T05:40:21;99863.06;;;1.66;89.37
28004;BME280;15330;51.234;6.754;2024-01-15T05:42:46;99863.56;;;1.58;89.12
28004;BME280;15330;51.234;6.754;2024-01-15T05:45:12;99854.31;;;1.65;88.74
28004;BME280;15330;51.234;6.754;2024-01-15T05:47:37;99859.41;;;1.54;88.74
28004;BME280;15330;51.234;6.754;2024-01-15T05:50:02;99857.72;;;1.67;88.79
28004;BME280;15330;51.234;6.754;2024-01-15T05:52:28;99866.34;;;1.69;88.78
28004;BME280;15330;51.234;6.754;2024-01-15T05:54:53;99856.56;;;1.71;88.37
28004;BME280;15330;51.234;6.754;2024-01-15T05:57:19;99855.97;;;1.80;88.30
28004;BME280;15330;51.234;6.754;2024-01-15T05:59:44;99858.00;;;1.62;88.88
28004;BME280;15330;51.234;6.754;2024-01-15T06:02:10;99852.22;;;1.70;88.66
28004;BME280;15330;51.234;6.754;2024-01-15T06:04:36;99843.78;;;1.51;89.16
28004;BME280;15330;51.234;6.754;2024-01-15T06:07:02;99836.88;;;1.90;89.47
28004;BME280;15330;51.234;6.754;2024-01-15T06:09:27;99837.69;;;1.77;88.41
28004;BME280;15330;51.234;6.754;2024-01-15T06:11:53;99833.63;;;1.99;88.26
28004;BME280;15330;51.234;6.754;2024-01-15T06:14:19;99841.41;;;1.88;87.83
28004;BME280;15330;51.234;6.754;2024-01-15T06:16:44;99830.16;;;1.71;88.62
28004;BME280;15330;51.234;6.754;2024-01-15T06:19:09;99839.28;;;1.80;88.21
28004;BME280;15330;51.234;6.754;2024-01-15T06:21:35;99829.25;;;1.85;87.84
28004;BME280;15330;51.234;6.754;2024-01-15T06:24:00;99839.94;;;1.83;87.90
28004;BME280;15330;51.234;6.754;2024-01-15T06:26:26;99831.84;;;1.72;88.29
28004;BME280;15330;51.234;6.754;2024-01-15T06:28:51;99824.47;;;1.50;88.72
28004;BME280;15330;51.234;6.754;2024-01-15T06:31:16;99827.38;;;1.60;88.68
28004;BME280;15330;51.234;6.754;2024-01-15T06:33:42;99835.09;;;1.63;88.97
28004;BME280;15330;51.234;6.754;2024-01-15T06:36:08;99830.13;;;1.58;88.55
28004;BME280;15330;51.234;6.754;2024-01-15T06:38:33;99826.72;;;1.83;88.41
28004;BME280;15330;51.234;6.754;2024-01-15T06:40:59;99826.97;;;1.66;88.68
28004;BME280;15330;51.234;6.754;2024-01-15T06:43:24;99826.19;;;1.78;88.51
28004;BME280;15330;51.234;6.754;2024-01-15T06:45:50;99831.94;;;1.98;88.27
28004;BME280;15330;51.234;6.754;2024-01-15T06:48:15;99834.16;;;1.64;89.52
28004;BME280;15330;51.234;6.754;2024-01-15T06:50:42;99834.88;;;1.66;90.19
28004;BME280;15330;51.234;6.754;2024-01-15T06:53:08;99831.38;;;1.80;89.99
28004;BME280;15330;51.234;6.754;2024-01-15T06:55:33;99841.06;;;2.19;88.65
28004;BME280;15330;51.234;6.754;2024-01-15T06:57:58;99839.13;;;2.08;88.83
28004;BME280;15330;51.234;6.754;2024-01-15T07:00:24;99843.69;;;1.79;89.25
28004;BME280;15330;51.234;6.754;2024-01-15T07:02:49;99832.72;;;1.85;89.06
28004;BME280;15330;51.234;6.754;2024-01-15T07:05:15;99840.44;;;2.16;88.90
28004;BME280;15330;51.234;6.754;2024-01-15T07:07:40;99831.59;;;1.90;88.97
28004;BME280;15330;51.234;6.754;2024-01-15T07:10:06;99828.06;;;1.76;89.38
28004;BME280;15330;51.234;6.754;2024-01-15T07:12:31;99827.78;;;1.81;89.78
28004;BME280;15330;51.234;6.754;2024-01-15T07:14:57;99830.66;;;1.63;88.94
28004;BME280;15330;51.234;6.754;2024-01-15T07:17:23;99830.06;;;1.73;89.22
28004;BME280;15330;51.234;6.754;2024-01-15T07:19:48;99824.53;;;1.90;89.12
28004;BME280;15330;51.234;6.754;2024-01-15T07:22:14;99828.97;;;1.90;88.88
28004;BME280;15330;51.234;6.754;2024-01-15T07:24:40;99827.00;;;2.06;88.70
28004;BME280;15330;51.234;6.754;2024-01-15T07:27:05;99816.88;;;1.73;89.76
28004;BME280;15330;51.234;6.754;2024-01-15T07:29:31;99823.25;;;1.96;88.97
28004;BME280;15330;51.234;6.754;2024-01-15T07:31:58;99824.78;;;2.00;88.69
28004;BME280;15330;51.234;6.754;2024-01-15T07:34:23;99818.72;;;1.98;88.32
28004;BME280;15330;51.234;6.754;2024-01-15T07:36:49;99817.38;;;2.05;87.93
28004;BME280;15330;51.234;6.754;2024-01-15T07:39:14;99819.34;;;1.89;88.23
28004;BME280;15330;51.234;6.754;2024-01-15T07:41:40;99820.84;;;1.93;88.75
28004;BME280;15330;51.234;6.754;2024-01-15T07:44:05;99812.31;;;2.15;87.51
28004;BME280;15330;51.234;6.754;2024-01-15T07:46:30;99819.91;;;2.06;88.22
28004;BME280;15330;51.234;6.754;2024-01-15T07:48:57;99813.59;;;2.09;87.64
28004;BME280;15330;51.234;6.754;2024-01-15T07:51:23;99822.59;;;2.19;87.70
28004;BME280;15330;51.234;6.754;2024-01-15T07:53:49;99821.69;;;1.66;89.35
28004;BME280;15330;51.234;6.754;2024-01-15T07:56:15;99827.03;;;1.52;90.35
28004;BME280;15330;51.234;6.754;2024-01-15T07:58:41;99820.91;;;1.78;89.67
28004;BME280;15330;51.234;6.754;2024-01-15T08:01:07;99820.25;;;1.75;89.19
28004;BME280;15330;51.234;6.754;2024-01-15T08:03:32;99826.38;;;1.75;89.84
28004;BME280;15330;51.234;6.754;2024-01-15T08:05:58;99823.22;;;1.70;89.37
28004;BME280;15330;51.234;6.754;2024-01-15T08:08:25;99814.78;;;1.78;88.89
28004;BME280;15330;51.234;6.754;2024-01-15T08:10:52;99824.00;;;1.58;89.46
28004;BME280;15330;51.234;6.754;2024-01-15T08:13:17;99821.09;;;1.75;89.03
28004;BME280;15330;51.234;6.754;2024-01-15T08:15:43;99819.91;;;1.67;88.95
28004;BME280;15330;51.234;6.754;2024-01-15T08:18:08;99818.53;;;1.61;89.50
28004;BME280;15330;51.234;6.754;2024-01-15T08:20:34;99816.22;;;1.69;89.04
28004;BME280;15330;51.234;6.754;2024-01-15T08:22:59;99810.91;;;1.56;90.02
28004;BME280;15330;51.234;6.754;2024-01-15T08:25:25;99809.50;;;1.78;89.63
28004;BME280;15330;51.234;6.754;2024-01-15T08:27:51;99813.97;;;1.63;89.78
28004;BME280;15330;51.234;6.754;2024-01-15T08:30:17;99809.84;;;1.59;89.33
28004;BME280;15330;51.234;6.754;2024-01-15T08:32:44;99821.59;;;1.40;90.66
28004;BME280;15330;51.234;6.754;2024-01-15T08:35:10;99817.78;;;1.32;90.99
28004;BME280;15330;51.234;6.754;2024-01-15T08:37:36;99817.41;;;1.24;91.64
28004;BME280;15330;51.234;6.754;2024-01-15T08:40:02;99818.88;;;1.42;90.92
28004;BME280;15330;51.234;6.754;2024-01-15T08:42:29;99811.63;;;1.31;90.97
28004;BME280;15330;51.234;6.754;2024-01-15T08:44:54;99815.47;;;1.40;90.96
28004;BME280;15330;51.234;6.754;2024-01-15T08:47:19;99825.25;;;1.52;90.45
28004;BME280;15330;51.234;6.754;2024-01-15T08:49:45;99816.03;;;1.45;90.86
28004;BME280;15330;51.234;6.754;2024-01-15T08:52:11;99826.94;;;1.12;91.99
28004;BME280;15330;51.234;6.754;2024-01-15T08:54:36;99821.47;;;1.15;91.83
28004;BME280;15330;51.234;6.754;2024-01-15T08:57:02;99834.91;;;1.25;91.50
28004;BME280;15330;51.234;6.754;2024-01-15T08:59:27;99833.84;;;1.42;91.37
28004;BME280;15330;51.234;6.754;2024-01-15T09:01:53;99833.41;;;1.35;91.04
28004;BME280;15330;51.234;6.754;2024-01-15T09:04:19;99838.19;;;1.28;91.22
28004;BME280;15330;51.234;6.754;2024-01-15T09:06:45;99836.38;;;1.43;91.36
28004;BME280;15330;51.234;6.754;2024-01-15T09:09:14;99846.13;;;1.14;91.67
28004;BME280;15330;51.234;6.754;2024-01-15T09:11:40;99848.47;;;1.19;92.18
28004;BME280;15330;51.234;6.754;2024-01-15T09:14:06;99843.19;;;1.19;91.49
28004;BME280;15330;51.234;6.754;2024-01-15T09:16:31;99849.00;;;1.38;91.40
28004;BME280;15330;51.234;6.754;2024-01-15T09:18:57;99854.56;;;1.33;91.07
28004;BME280;15330;51.234;6.754;2024-01-15T09:21:23;99849.09;;;1.36;91.24
28004;BME280;15330;51.234;6.754;2024-01-15T09:23:50;99861.53;;;1.34;91.50
28004;BME280;15330;51.234;6.754;2024-01-15T09:26:15;99869.09;;;1.26;91.97
28004;BME280;15330;51.234;6.754;2024-01-15T09:28:41;99857.97;;;1.21;91.44
28004;BME280;15330;51.234;6.754;2024-01-15T09:31:06;99857.44;;;1.16;91.82
28004;BME280;15330;51.234;6.754;2024-01-15T09:33:31;99846.53;;;1.08;92.32
28004;BME280;15330;51.234;6.754;2024-01-15T09:35:57;99857.06;;;1.08;92.24
28004;BME280;15330;51.234;6.754;2024-01-15T09:38:22;99852.13;;;1.30;91.48
28004;BME280;15330;51.234;6.754;2024-01-15T09:40:49;99848.72;;;1.28;91.45
28004;BME280;15330;51.234;6.754;2024-01-15T09:43:15;99854.81;;;1.16;91.53
28004;BME280;15330;51.234;6.754;2024-01-15T09:45:42;99865.94;;;1.48;90.70
28004;BME280;15330;51.234;6.754;2024-01-15T09:48:08;99865.44;;;1.56;89.86
28004;BME280;15330;51.234;6.754;2024-01-15T09:50:34;99869.38;;;1.22;91.66
28004;BME280;15330;51.234;6.754;2024-01-15T09:53:00;99858.31;;;1.44;91.13
28004;BME280;15330;51.234;6.754;2024-01-15T09:55:26;99873.69;;;1.37;91.20
28004;BME280;15330;51.234;6.754;2024-01-15T09:57:53;99863.59;;;1.44;91.66
28004;BME280;15330;51.234;6.754;2024-01-15T10:00:20;99870.97;;;1.24;91.05
28004;BME280;15330;51.234;6.754;2024-01-15T10:02:46;99866.91;;;1.19;91.76
28004;BME280;15330;51.234;6.754;2024-01-15T10:05:12;99876.81;;;1.29;91.89
28004;BME280;15330;51.234;6.754;2024-01-15T10:07:37;99873.59;;;1.24;91.44
28004;BME280;15330;51.234;6.754;2024-01-15T10:10:03;99879.22;;;1.47;91.22
28004;BME280;15330;51.234;6.754;2024-01-15T10:12:29;99879.47;;;1.71;90.61
28004;BME280;15330;51.234;6.754;2024-01-15T10:14:56;99879.59;;;1.55;91.02
28004;BME280;15330;51.234;6.754;2024-01-15T10:17:21;99878.38;;;1.46;91.42
28004;BME280;15330;51.234;6.754;2024-01-15T10:19:47;99877.47;;;1.74;90.71
28004;BME280;15330;51.234;6.754;2024-01-15T10:22:14;99871.53;;;1.71;90.45
28004;BME280;15330;51.234;6.754;2024-01-15T10:24:40;99867.69;;;1.62;90.40
28004;BME280;15330;51.234;6.754;2024-01-15T10:27:09;99879.09;;;1.62;90.79
28004;BME280;15330;51.234;6.754;2024-01-15T10:29:35;99877.34;;;1.49;91.49
28004;BME280;15330;51.234;6.754;2024-01-15T10:32:02;99876.13;;;1.54;90.25
28004;BME280;15330;51.234;6.754;2024-01-15T10:34:27;99881.06;;;1.32;91.34
28004;BME280;15330;51.234;6.754;2024-01-15T10:36:53;99869.44;;;1.34;91.54
28004;BME280;15330;51.234;6.754;2024-01-15T10:39:21;99869.25;;;1.37;91.02
28004;BME280;15330;51.234;6.754;2024-01-15T10:41:47;99863.72;;;1.69;90.36
28004;BME280;15330;51.234;6.754;2024-01-15T10:44:12;99863.41;;;1.47;90.65
28004;BME280;15330;51.234;6.754;2024-01-15T10:46:38;99871.19;;;1.62;90.49
28004;BME280;15330;51.234;6.754;2024-01-15T10:49:04;99874.47;;;1.66;90.37
28004;BME280;15330;51.234;6.754;2024-01-15T10:51:29;99871.69;;;1.55;90.95
28004;BME280;15330;51.234;6.754;2024-01-15T10:53:56;99864.69;;;1.54;90.62
28004;BME280;15330;51.234;6.754;2024-01-15T10:56:22;99873.56;;;1.53;90.36
28004;BME280;15330;51.234;6.754;2024-01-15T10:58:50;99878.16;;;1.91;89.81
28004;BME280;15330;51.234;6.754;2024-01-15T11:01:15;99876.03;;;1.96;89.58
28004;BME280;15330;51.234;6.754;2024-01-15T11:03:42;99871.47;;;1.85;89.31
28004;BME280;15330;51.234;6.754;2024-01-15T11:06:18;99865.72;;;2.05;89.24
28004;BME280;15330;51.234;6.754;2024-01-15T11:08:50;99877.75;;;1.97;88.96
28004;BME280;15330;51.234;6.754;2024-01-15T11:11:17;99870.47;;;1.73;89.78
28004;BME280;15330;51.234;6.754;2024-01-15T11:13:43;99876.47;;;1.90;89.83
28004;BME280;15330;51.234;6.754;2024-01-15T11:16:13;99872.84;;;1.78;90.55
28004;BME280;15330;51.234;6.754;2024-01-15T11:18:42;99871.28;;;2.28;88.94
28004;BME280;15330;51.234;6.754;2024-01-15T11:23:42;99872.75;;;1.92;89.00
28004;BME280;15330;51.234;6.754;2024-01-15T11:29:01;99873.69;;;2.18;87.88
28004;BME280;15330;51.234;6.754;2024-01-15T11:31:29;99879.75;;;2.46;86.82
28004;BME280;15330;51.234;6.754;2024-01-15T11:34:14;99872.19;;;2.54;87.38
28004;BME280;15330;51.234;6.754;2024-01-15T11:39:40;99861.28;;;2.46;87.52
28004;BME280;15330;51.234;6.754;2024-01-15T11:42:09;99867.06;;;3.28;83.57
28004;BME280;15330;51.234;6.754;2024-01-15T11:44:34;99862.53;;;2.91;84.84
28004;BME280;15330;51.234;6.754;2024-01-15T11:50:21;99860.13;;;2.75;84.88
28004;BME280;15330;51.234;6.754;2024-01-15T11:52:57;99859.59;;;2.45;85.59
28004;BME280;15330;51.234;6.754;2024-01-15T11:55:28;99857.63;;;2.21;86.01
28004;BME280;15330;51.234;6.754;2024-01-15T11:57:55;99866.44;;;2.98;84.43
28004;BME280;15330;51.234;6.754;2024-01-15T12:00:23;99864.78;;;3.47;82.38
28004;BME280;15330;51.234;6.754;2024-01-15T12:02:49;99863.94;;;2.71;84.06
28004;BME280;15330;51.234;6.754;2024-01-15T12:05:17;99867.13;;;2.64;84.33
28004;BME280;15330;51.234;6.754;2024-01-15T12:07:44;99869.00;;;2.49;85.66
28004;BME280;15330;51.234;6.754;2024-01-15T12:10:13;99872.19;;;2.54;85.38
28004;BME280;15330;51.234;6.754;2024-01-15T12:12:57;99867.59;;;2.30;85.71
28004;BME280;15330;51.234;6.754;2024-01-15T12:15:25;99864.53;;;2.37;86.72
28004;BME280;15330;51.234;6.754;2024-01-15T12:17:51;99869.19;;;2.46;85.95
28004;BME280;15330;51.234;6.754;2024-01-15T12:20:17;99874.78;;;2.28;85.30
28004;BME280;15330;51.234;6.754;2024-01-15T12:22:43;99865.09;;;2.42;85.17
28004;BME280;15330;51.234;6.754;2024-01-15T12:25:09;99864.13;;;2.43;85.43
28004;BME280;15330;51.234;6.754;2024-01-15T12:27:35;99866.91;;;2.54;85.12
28004;BME280;15330;51.234;6.754;2024-01-15T12:30:00;99860.53;;;2.82;84.25
28004;BME280;15330;51.234;6.754;2024-01-15T12:32:25;99864.97;;;2.94;83.68
28004;BME280;15330;51.234;6.754;2024-01-15T12:34:51;99876.47;;;3.19;83.29
28004;BME280;15330;51.234;6.754;2024-01-15T12:37:19;99871.09;;;2.95;83.74
28004;BME280;15330;51.234;6.754;2024-01-15T12:39:45;99873.66;;;2.84;85.08
28004;BME280;15330;51.234;6.754;2024-01-15T12:42:11;99871.44;;;2.65;83.60
28004;BME280;15330;51.234;6.754;2024-01-15T12:44:37;99880.41;;;2.62;84.60
28004;BME280;15330;51.234;6.754;2024-01-15T12:47:06;99887.19;;;2.79;84.74
28004;BME280;15330;51.234;6.754;2024-01-15T12:49:31;99878.09;;;2.58;85.08
28004;BME280;15330;51.234;6.754;2024-01-15T12:51:57;99884.22;;;2.71;85.27
28004;BME280;15330;51.234;6.754;2024-01-15T12:54:23;99886.88;;;2.58;84.68
28004;BME280;15330;51.234;6.754;2024-01-15T12:56:50;99888.97;;;2.78;83.57
28004;BME280;15330;51.234;6.754;2024-01-15T12:59:16;99890.94;;;2.37;84.78
28004;BME280;15330;51.234;6.754;2024-01-15T13:01:42;99889.56;;;2.44;84.28
28004;BME280;15330;51.234;6.754;2024-01-15T13:04:08;99893.28;;;2.28;84.72
28004;BME280;15330;51.234;6.754;2024-01-15T13:06:36;99885.66;;;2.37;84.31
28004;BME280;15330;51.234;6.754;2024-01-15T13:09:03;99889.31;;;2.21;84.10
28004;BME280;15330;51.234;6.754;2024-01-15T13:11:33;99883.59;;;2.67;83.60
28004;BME280;15330;51.234;6.754;2024-01-15T13:13:58;99891.59;;;2.53;83.82
28004;BME280;15330;51.234;6.754;2024-01-15T13:16:24;99884.50;;;2.53;84.35
28004;BME280;15330;51.234;6.754;2024-01-15T13:18:52;99883.16;;;2.48;84.80